Historique des mesures à Cassis (13260), France
Quotidien Résumé Janvier 23, 2017 Unités:  Métrique    US   Métrique/US
« Précédent (Jour)
Suivant (Jour) »
Quotidien Hebdomadaire Mensuel Annuel Période au choix
  Maximum: Minimum: Moyenne:
Température: TemperatureC °C 9.5 °C 10.6 °C
Point de rosée: DewpointC °C 3.7 °C 4.9 °C
Humidité: Humidity % 56 % 65 %
Vitesse du vent: 0 km/h 0 km/h 0 km/h
Rafales: 0 km/h - -
Vent:- - North
Pression: PressurehPa hPa 1011.7 hPa -
Précipitations: 1.0 mm    
Historical Graphs
 
 
Mesures pour : Janvier 23, 2017
Heure Temperature Point de rosée Pression Vent Vitesse du vent Rafales Humidité Pluie (par heure) Conditions
TemperatureC °C DewpointC °C PressurehPa hPa Calm     Humidity % HourlyPrecipMM mm SoftwareType W/m2
00:10 12.6 °C 4.0 °C 1015.1 hPa Calm   8 km/h 56 % 0.0 mm open2300-1.11 W/m2
01:11 12.1 °C 4.8 °C 1014.8 hPa Calm     61 % 0.0 mm open2300-1.11 W/m2
02:10 12.1 °C 4.6 °C 1014.4 hPa Calm     60 % 0.0 mm open2300-1.11 W/m2
03:11 12.3 °C 4.8 °C 1014.8 hPa Calm     60 % 0.0 mm open2300-1.11 W/m2
04:10 11.1 °C 5.7 °C 1014.8 hPa Calm     69 % 0.5 mm open2300-1.11 W/m2
05:11 10.6 °C 5.6 °C 1014.1 hPa Calm     71 % 0.5 mm open2300-1.11 W/m2
06:10 9.9 °C 5.3 °C 1014.1 hPa Calm     73 % 0.0 mm open2300-1.11 W/m2
07:11 10.2 °C 5.2 °C 1014.1 hPa Calm     71 % 0.0 mm open2300-1.11 W/m2
08:10 9.8 °C 5.0 °C 1014.4 hPa Calm     72 % 0.0 mm open2300-1.11 W/m2
09:11 9.5 °C 5.4 °C 1014.4 hPa Calm     76 % 0.0 mm open2300-1.11 W/m2
10:10 10.2 °C 5.9 °C 1014.4 hPa Calm     75 % 0.0 mm open2300-1.11 W/m2
11:11 10.4 °C 5.6 °C 1014.4 hPa Calm     72 % 0.0 mm open2300-1.11 W/m2
12:10 10.9 °C 5.0 °C 1014.1 hPa Calm   9.8 km/h 67 % 0.0 mm open2300-1.11 W/m2
13:11 11.3 °C 5.6 °C 1013.1 hPa Calm     68 % 0.0 mm open2300-1.11 W/m2
14:10 12.1 °C 5.7 °C 1012.8 hPa Calm     65 % 0.0 mm open2300-1.11 W/m2
15:11 12.8 °C 6.1 °C 1012.4 hPa Calm     64 % 0.0 mm open2300-1.11 W/m2
16:10 13.1 °C 6.7 °C 1012.4 hPa Calm     65 % 0.0 mm open2300-1.11 W/m2
17:11 12.5 °C 6.3 °C 1012.4 hPa Calm     66 % 0.0 mm open2300-1.11 W/m2
18:10 11.0 °C 5.1 °C 1012.8 hPa Calm     67 % 0.0 mm open2300-1.11 W/m2
19:11 10.5 °C 4.6 °C 1012.8 hPa Calm     67 % 0.0 mm open2300-1.11 W/m2
20:10 10.4 °C 4.5 °C 1012.8 hPa Calm     67 % 0.0 mm open2300-1.11 W/m2
21:11 10.1 °C 4.2 °C 1012.4 hPa Calm     67 % 0.0 mm open2300-1.11 W/m2
22:10 9.8 °C 3.9 °C 1012.4 hPa Calm     67 % 0.0 mm open2300-1.11 W/m2
23:11 9.5 °C 3.7 °C 1011.7 hPa Calm     67 % 0.0 mm open2300-1.11 W/m2
Observations météo à CASSIS
WU-History script by Weather Underground - 1 mb